createdAt,value
2022-10-06T00:01:06.505Z,9.13
2022-10-06T00:03:33.245Z,9.95
2022-10-06T00:06:03.675Z,7.35
2022-10-06T00:08:32.149Z,8.63
2022-10-06T00:10:59.193Z,6.03
2022-10-06T00:13:27.814Z,5.10
2022-10-06T00:15:54.703Z,4.43
2022-10-06T00:18:21.532Z,6.10
2022-10-06T00:21:00.258Z,7.05
2022-10-06T00:23:28.567Z,4.22
2022-10-06T00:25:55.477Z,7.45
2022-10-06T00:28:22.207Z,6.68
2022-10-06T00:30:50.871Z,8.80
2022-10-06T00:33:17.746Z,7.70
2022-10-06T00:35:46.636Z,8.60
2022-10-06T00:38:15.995Z,8.43
2022-10-06T00:40:45.261Z,8.38
2022-10-06T00:43:36.889Z,5.22
2022-10-06T00:46:03.917Z,2.35
2022-10-06T00:48:31.385Z,1.90
2022-10-06T00:50:59.321Z,2.00
2022-10-06T00:53:31.006Z,2.83
2022-10-06T00:55:57.709Z,4.20
2022-10-06T00:58:25.329Z,2.13
2022-10-06T01:00:54.492Z,3.95
2022-10-06T01:03:27.035Z,4.18
2022-10-06T01:05:55.362Z,4.53
2022-10-06T01:08:23.574Z,3.88
2022-10-06T01:10:50.245Z,5.60
2022-10-06T01:13:18.005Z,5.60
2022-10-06T01:16:08.063Z,3.65
2022-10-06T01:18:37.189Z,5.32
2022-10-06T01:21:11.884Z,6.57
2022-10-06T01:23:39.550Z,3.65
2022-10-06T01:26:09.884Z,6.28
2022-10-06T01:28:38.618Z,3.72
2022-10-06T01:31:07.633Z,3.67
2022-10-06T01:33:34.323Z,4.65
2022-10-06T01:36:01.798Z,3.50
2022-10-06T01:38:28.809Z,8.70
2022-10-06T01:41:00.853Z,7.00
2022-10-06T01:43:27.687Z,5.88
2022-10-06T01:45:58.639Z,5.50
2022-10-06T01:48:26.922Z,4.07
2022-10-06T01:50:56.075Z,7.35
2022-10-06T01:53:23.096Z,6.88
2022-10-06T01:55:49.794Z,8.23
2022-10-06T01:58:20.822Z,5.13
2022-10-06T02:00:47.856Z,5.50
2022-10-06T02:03:14.774Z,6.28
2022-10-06T02:05:41.927Z,6.07
2022-10-06T02:08:09.683Z,5.65
2022-10-06T02:10:36.725Z,4.03
2022-10-06T02:13:06.150Z,5.10
2022-10-06T02:15:34.028Z,6.82
2022-10-06T02:18:00.660Z,6.70
2022-10-06T02:20:27.665Z,7.25
2022-10-06T02:22:54.276Z,7.90
2022-10-06T02:25:21.286Z,9.95
2022-10-06T02:27:48.636Z,6.22
2022-10-06T02:30:15.792Z,10.30
2022-10-06T02:32:44.096Z,9.35
2022-10-06T02:35:15.094Z,9.95
2022-10-06T02:37:43.156Z,5.45
2022-10-06T02:40:13.161Z,7.30
2022-10-06T02:42:39.812Z,10.23
2022-10-06T02:45:07.569Z,10.60
2022-10-06T02:47:36.400Z,7.07
2022-10-06T02:50:05.636Z,9.27
2022-10-06T02:52:34.246Z,8.70
2022-10-06T02:55:03.006Z,6.63
2022-10-06T02:57:30.711Z,9.73
2022-10-06T02:59:58.538Z,8.15
2022-10-06T03:02:25.650Z,9.18
2022-10-06T03:04:53.279Z,8.48
2022-10-06T03:07:19.971Z,4.55
2022-10-06T03:09:46.619Z,11.60
2022-10-06T03:12:13.281Z,13.43
2022-10-06T03:14:43.299Z,13.88
2022-10-06T03:17:10.259Z,8.73
2022-10-06T03:19:43.246Z,12.63
2022-10-06T03:22:10.490Z,12.93
2022-10-06T03:24:42.657Z,9.55
2022-10-06T03:27:09.853Z,10.52
2022-10-06T03:29:36.480Z,13.10
2022-10-06T03:32:03.975Z,13.00
2022-10-06T03:34:31.203Z,13.40
2022-10-06T03:37:01.071Z,17.42
2022-10-06T03:39:28.763Z,13.77
2022-10-06T03:41:55.383Z,14.95
2022-10-06T03:44:22.681Z,11.88
2022-10-06T03:46:49.427Z,14.73
2022-10-06T03:49:16.174Z,11.13
2022-10-06T03:51:42.962Z,8.23
2022-10-06T03:54:14.942Z,7.82
2022-10-06T03:56:43.774Z,12.85
2022-10-06T03:59:16.336Z,13.80
2022-10-06T04:01:47.007Z,13.65
2022-10-06T04:04:18.236Z,9.50
2022-10-06T04:06:48.999Z,14.13
2022-10-06T04:09:18.653Z,19.80
2022-10-06T04:11:45.378Z,16.15
2022-10-06T04:14:15.102Z,12.18
2022-10-06T04:16:49.881Z,15.20
2022-10-06T04:19:21.959Z,18.60
2022-10-06T04:21:52.964Z,16.85
2022-10-06T04:24:22.840Z,13.68
2022-10-06T04:26:50.025Z,14.88
2022-10-06T04:29:18.020Z,17.17
2022-10-06T04:31:48.213Z,15.63
2022-10-06T04:34:35.882Z,19.35
2022-10-06T04:37:03.946Z,13.48
2022-10-06T04:39:30.645Z,12.93
2022-10-06T04:41:57.366Z,13.70
2022-10-06T04:44:28.514Z,17.27
2022-10-06T04:46:58.075Z,18.88
2022-10-06T04:49:25.212Z,15.30
2022-10-06T04:51:53.312Z,13.48
2022-10-06T04:54:20.937Z,22.55
2022-10-06T04:56:51.056Z,20.48
2022-10-06T04:59:41.435Z,12.68
2022-10-06T05:02:09.158Z,14.93
2022-10-06T05:04:35.972Z,16.15
2022-10-06T05:07:02.744Z,15.63
2022-10-06T05:09:29.439Z,20.45
2022-10-06T05:11:56.083Z,17.95
2022-10-06T05:14:23.150Z,12.20
2022-10-06T05:16:50.129Z,19.67
2022-10-06T05:19:17.017Z,11.85
2022-10-06T05:21:43.712Z,13.73
2022-10-06T05:24:18.308Z,20.33
2022-10-06T05:26:45.503Z,18.58
2022-10-06T05:29:14.599Z,19.90
2022-10-06T05:31:43.438Z,19.70
2022-10-06T05:34:11.079Z,18.75
2022-10-06T05:36:38.862Z,20.85
2022-10-06T05:39:06.700Z,17.10
2022-10-06T05:41:38.958Z,24.35
2022-10-06T05:44:08.913Z,16.40
2022-10-06T05:46:38.192Z,19.08
2022-10-06T05:49:08.965Z,14.15
2022-10-06T05:51:36.715Z,15.40
2022-10-06T05:54:07.939Z,19.15
2022-10-06T05:56:37.109Z,15.77
2022-10-06T05:59:05.183Z,19.88
2022-10-06T06:01:37.248Z,12.32
2022-10-06T06:04:11.024Z,18.40
2022-10-06T06:06:48.526Z,15.97
2022-10-06T06:09:21.153Z,11.82
2022-10-06T06:11:54.610Z,20.42
2022-10-06T06:14:47.881Z,19.95
2022-10-06T06:17:18.690Z,22.35
2022-10-06T06:19:45.586Z,16.90
2022-10-06T06:22:18.201Z,10.68
2022-10-06T06:24:46.898Z,16.20
2022-10-06T06:27:14.456Z,14.50
2022-10-06T06:29:41.232Z,21.88
2022-10-06T06:32:09.448Z,23.33
2022-10-06T06:34:36.297Z,11.68
2022-10-06T06:37:07.514Z,11.05
2022-10-06T06:39:36.741Z,21.05
2022-10-06T06:42:05.051Z,22.13
2022-10-06T06:44:38.567Z,17.00
2022-10-06T06:47:12.563Z,22.30
2022-10-06T06:49:39.239Z,29.08
2022-10-06T06:52:08.073Z,20.30
2022-10-06T06:54:36.157Z,20.55
2022-10-06T06:57:09.893Z,25.15
2022-10-06T06:59:38.854Z,18.88
2022-10-06T07:02:09.607Z,17.75
2022-10-06T07:04:38.746Z,19.35
2022-10-06T07:07:09.689Z,23.55
2022-10-06T07:09:36.974Z,16.95
2022-10-06T07:12:07.348Z,16.55
2022-10-06T07:14:33.991Z,21.92
2022-10-06T07:17:20.407Z,12.85
2022-10-06T07:20:07.973Z,20.90
2022-10-06T07:22:53.891Z,19.05
2022-10-06T07:25:26.352Z,21.90
2022-10-06T07:27:59.608Z,20.65
2022-10-06T07:30:30.599Z,18.48
2022-10-06T07:33:09.522Z,23.20
2022-10-06T07:35:39.420Z,23.30
2022-10-06T07:38:07.787Z,20.58
2022-10-06T07:40:46.253Z,21.50
2022-10-06T07:43:18.236Z,18.63
2022-10-06T07:45:47.116Z,23.10
2022-10-06T07:48:23.297Z,17.17
2022-10-06T07:50:56.251Z,16.65
2022-10-06T07:53:27.890Z,30.17
2022-10-06T07:56:05.592Z,19.08
2022-10-06T07:58:37.545Z,16.88
2022-10-06T08:01:09.481Z,26.02
2022-10-06T08:03:41.187Z,22.40
2022-10-06T08:06:12.344Z,23.55
2022-10-06T08:08:39.089Z,21.15
2022-10-06T08:11:08.174Z,26.08
2022-10-06T08:13:36.880Z,19.58
2022-10-06T08:16:09.186Z,21.52
2022-10-06T08:18:51.542Z,21.17
2022-10-06T08:21:21.334Z,24.42
2022-10-06T08:23:49.797Z,27.33
2022-10-06T08:26:18.218Z,29.90
2022-10-06T08:28:47.630Z,26.40
2022-10-06T08:31:15.704Z,22.00
2022-10-06T08:33:43.756Z,24.05
2022-10-06T08:36:14.273Z,27.90
2022-10-06T08:38:41.243Z,21.40
2022-10-06T08:41:34.049Z,24.73
2022-10-06T08:44:04.329Z,23.33
2022-10-06T08:46:53.035Z,22.42
2022-10-06T08:49:22.678Z,22.58
2022-10-06T08:52:18.309Z,21.85
2022-10-06T08:55:07.299Z,25.42
2022-10-06T08:57:57.120Z,23.35
2022-10-06T09:00:23.972Z,23.38
2022-10-06T09:02:51.716Z,25.75
2022-10-06T09:05:25.491Z,23.88
2022-10-06T09:08:19.323Z,23.13
2022-10-06T09:11:23.762Z,24.75
2022-10-06T09:14:26.719Z,23.45
2022-10-06T09:17:00.596Z,24.90
2022-10-06T09:19:41.898Z,22.40
2022-10-06T09:22:17.086Z,23.77
2022-10-06T09:24:49.415Z,24.00
2022-10-06T09:27:23.044Z,24.10
2022-10-06T09:29:52.120Z,22.67
2022-10-06T09:32:20.831Z,23.90
2022-10-06T09:34:56.057Z,23.80
2022-10-06T09:37:23.646Z,22.98
2022-10-06T09:39:51.773Z,24.75
2022-10-06T09:42:23.187Z,26.92
2022-10-06T09:45:05.748Z,24.35
2022-10-06T09:47:37.022Z,23.98
2022-10-06T09:50:16.117Z,25.45
2022-10-06T09:53:01.605Z,24.27
2022-10-06T09:57:57.998Z,26.05
2022-10-06T10:00:35.900Z,23.55
2022-10-06T10:03:12.073Z,24.63
2022-10-06T10:05:46.107Z,23.15
2022-10-06T10:08:42.012Z,24.63
2022-10-06T10:11:31.301Z,22.42
2022-10-06T10:13:58.728Z,26.23
2022-10-06T10:16:34.982Z,23.13
2022-10-06T10:19:04.076Z,23.63
2022-10-06T10:21:33.501Z,27.00
2022-10-06T10:24:03.112Z,23.48
2022-10-06T10:26:49.978Z,23.92
2022-10-06T10:29:33.090Z,23.15
2022-10-06T10:32:15.887Z,23.80
2022-10-06T10:35:00.853Z,24.15
2022-10-06T10:37:47.532Z,24.05
2022-10-06T10:40:31.360Z,24.05
2022-10-06T10:43:11.484Z,23.63
2022-10-06T10:45:55.073Z,25.80
2022-10-06T10:48:34.102Z,24.17
2022-10-06T10:51:06.832Z,33.08
2022-10-06T10:53:43.081Z,25.65
2022-10-06T10:56:13.098Z,23.70
2022-10-06T10:58:43.622Z,24.40
2022-10-06T11:01:29.373Z,26.27
2022-10-06T11:03:57.910Z,24.92
2022-10-06T11:06:41.370Z,25.27
2022-10-06T11:09:51.793Z,23.45
2022-10-06T11:12:51.993Z,23.92
2022-10-06T11:16:04.005Z,23.05
2022-10-06T11:18:47.724Z,23.10
2022-10-06T11:21:21.465Z,22.80
2022-10-06T11:23:57.262Z,23.63
2022-10-06T11:26:46.077Z,22.63
2022-10-06T11:29:21.601Z,22.73
2022-10-06T11:32:04.441Z,22.80
2022-10-06T11:34:31.136Z,22.55
2022-10-06T11:37:03.961Z,24.77
2022-10-06T11:39:50.742Z,23.80
2022-10-06T11:42:38.753Z,22.38
2022-10-06T11:45:13.734Z,24.48
2022-10-06T11:48:03.593Z,23.35
2022-10-06T11:50:37.985Z,28.63
2022-10-06T11:53:13.868Z,30.60
2022-10-06T11:55:40.569Z,23.60
2022-10-06T12:01:03.008Z,24.33
2022-10-06T12:03:30.987Z,24.35
2022-10-06T12:05:57.675Z,23.77
2022-10-06T12:08:37.908Z,26.80
2022-10-06T12:11:43.715Z,22.98
2022-10-06T12:16:35.288Z,25.10
2022-10-06T12:17:34.037Z,24.00
2022-10-06T12:20:40.085Z,23.45
2022-10-06T12:23:35.343Z,23.92
2022-10-06T12:26:26.327Z,23.27
2022-10-06T12:29:19.673Z,23.70
2022-10-06T12:31:52.599Z,22.98
2022-10-06T12:34:44.300Z,22.70
2022-10-06T12:37:32.448Z,21.98
2022-10-06T12:40:37.234Z,24.30
2022-10-06T12:43:22.943Z,23.58
2022-10-06T12:45:55.864Z,24.67
2022-10-06T12:48:31.475Z,25.05
2022-10-06T12:51:04.076Z,23.38
2022-10-06T12:53:40.409Z,24.90
2022-10-06T12:56:27.025Z,24.20
2022-10-06T12:58:54.560Z,24.48
2022-10-06T13:01:22.850Z,24.55
2022-10-06T13:03:50.944Z,22.80
2022-10-06T13:06:24.511Z,24.50
2022-10-06T13:09:26.556Z,22.88
2022-10-06T13:11:53.344Z,24.65
2022-10-06T13:14:19.940Z,23.55
2022-10-06T13:16:48.173Z,24.55
2022-10-06T13:19:23.890Z,23.55
2022-10-06T13:21:51.201Z,24.60
2022-10-06T13:24:20.423Z,27.77
2022-10-06T13:26:47.621Z,23.77
2022-10-06T13:29:21.182Z,26.90
2022-10-06T13:31:52.839Z,24.65
2022-10-06T13:34:33.167Z,23.65
2022-10-06T13:37:01.190Z,24.25
2022-10-06T13:39:32.308Z,24.85
2022-10-06T13:42:17.738Z,23.80
2022-10-06T13:47:16.063Z,25.05
2022-10-06T13:49:58.361Z,25.10
2022-10-06T13:52:48.624Z,23.73
2022-10-06T13:55:22.258Z,23.13
2022-10-06T13:57:51.622Z,26.50
2022-10-06T14:00:24.728Z,22.67
2022-10-06T14:03:09.983Z,23.75
2022-10-06T14:05:42.154Z,24.75
2022-10-06T14:08:11.910Z,22.67
2022-10-06T14:10:42.343Z,24.15
2022-10-06T14:13:16.019Z,22.85
2022-10-06T14:15:47.937Z,23.23
2022-10-06T14:18:39.838Z,23.70
2022-10-06T14:21:18.960Z,23.60
2022-10-06T14:23:50.114Z,23.15
2022-10-06T14:26:19.319Z,22.08
2022-10-06T14:28:49.123Z,22.52
2022-10-06T14:31:16.198Z,23.20
2022-10-06T14:33:42.912Z,23.42
2022-10-06T14:36:19.173Z,23.13
2022-10-06T14:38:50.386Z,24.00
2022-10-06T14:41:24.758Z,23.10
2022-10-06T14:44:01.603Z,23.65
2022-10-06T14:46:28.841Z,23.30
2022-10-06T14:48:56.600Z,23.55
2022-10-06T14:51:25.497Z,23.98
2022-10-06T14:53:57.931Z,23.45
2022-10-06T14:56:28.790Z,22.70
2022-10-06T14:58:55.874Z,22.38
2022-10-06T15:01:25.413Z,24.05
2022-10-06T15:04:09.696Z,23.20
2022-10-06T15:06:55.615Z,22.23
2022-10-06T15:09:23.729Z,22.40
2022-10-06T15:11:51.696Z,23.52
2022-10-06T15:14:18.546Z,22.88
2022-10-06T15:16:45.275Z,25.38
2022-10-06T15:19:12.808Z,23.83
2022-10-06T15:21:41.202Z,24.02
2022-10-06T15:24:12.011Z,23.50
2022-10-06T15:26:57.874Z,23.67
2022-10-06T15:29:24.768Z,24.05
2022-10-06T15:31:55.337Z,23.80
2022-10-06T15:34:25.202Z,24.35
2022-10-06T15:36:53.163Z,23.90
2022-10-06T15:39:22.434Z,23.73
2022-10-06T15:41:50.207Z,25.42
2022-10-06T15:44:17.976Z,25.75
2022-10-06T15:46:49.029Z,23.17
2022-10-06T15:49:20.093Z,24.75
2022-10-06T15:51:59.299Z,24.20
2022-10-06T15:54:33.567Z,24.73
2022-10-06T15:57:02.143Z,24.77
2022-10-06T15:59:32.287Z,25.58
2022-10-06T16:02:03.214Z,25.13
2022-10-06T16:04:40.432Z,24.20
2022-10-06T16:07:08.281Z,23.80
2022-10-06T16:09:43.065Z,23.63
2022-10-06T16:12:12.377Z,25.30
2022-10-06T16:14:39.086Z,25.40
2022-10-06T16:17:07.299Z,23.55
2022-10-06T16:19:36.707Z,22.13
2022-10-06T16:22:04.851Z,24.90
2022-10-06T16:24:31.789Z,29.98
2022-10-06T16:26:59.817Z,28.90
2022-10-06T16:29:27.897Z,24.83
2022-10-06T16:31:54.983Z,24.33
2022-10-06T16:34:22.167Z,22.85
2022-10-06T16:36:48.880Z,25.23
2022-10-06T16:39:21.199Z,23.85
2022-10-06T16:41:48.739Z,23.55
2022-10-06T16:44:15.880Z,25.65
2022-10-06T16:46:42.978Z,25.08
2022-10-06T16:49:10.031Z,27.02
2022-10-06T16:51:39.827Z,26.52
2022-10-06T16:54:08.898Z,29.70
2022-10-06T16:56:44.537Z,30.70
2022-10-06T16:59:12.829Z,27.38
2022-10-06T17:01:39.887Z,28.48
2022-10-06T17:04:09.690Z,27.55
2022-10-06T17:06:39.615Z,27.25
2022-10-06T17:09:08.496Z,26.17
2022-10-06T17:11:36.232Z,25.17
2022-10-06T17:14:04.111Z,33.50
2022-10-06T17:16:34.992Z,24.95
2022-10-06T17:19:02.314Z,28.33
2022-10-06T17:21:49.610Z,26.10
2022-10-06T17:24:18.994Z,32.80
2022-10-06T17:26:48.499Z,32.50
2022-10-06T17:29:18.705Z,26.67
2022-10-06T17:31:46.991Z,31.67
2022-10-06T17:34:20.480Z,30.52
2022-10-06T17:36:50.622Z,26.23
2022-10-06T17:39:22.390Z,24.35
2022-10-06T17:41:52.334Z,24.27
2022-10-06T17:44:23.743Z,26.70
2022-10-06T17:46:56.393Z,22.13
2022-10-06T17:49:24.493Z,21.45
2022-10-06T17:51:52.740Z,31.08
2022-10-06T17:54:21.483Z,17.77
2022-10-06T17:56:50.535Z,19.70
2022-10-06T17:59:22.154Z,27.65
2022-10-06T18:01:50.950Z,124.53
2022-10-06T18:04:18.318Z,94.43
2022-10-06T18:06:46.319Z,34.72
2022-10-06T18:09:14.419Z,24.85
2022-10-06T18:11:43.805Z,30.85
2022-10-06T18:14:21.521Z,38.53
2022-10-06T18:17:00.936Z,31.98
2022-10-06T18:19:29.738Z,33.92
2022-10-06T18:22:02.842Z,29.40
2022-10-06T18:24:31.189Z,24.30
2022-10-06T18:26:59.786Z,19.80
2022-10-06T18:29:30.125Z,24.45
2022-10-06T18:32:05.056Z,26.00
2022-10-06T18:37:30.509Z,33.15
2022-10-06T18:39:57.148Z,34.75
2022-10-06T18:42:24.567Z,34.42
2022-10-06T18:45:09.719Z,37.95
2022-10-06T18:47:54.820Z,24.92
2022-10-06T18:50:21.497Z,21.88
2022-10-06T18:52:48.454Z,19.90
2022-10-06T18:55:15.303Z,20.40
2022-10-06T18:57:43.645Z,22.75
2022-10-06T19:00:11.193Z,29.00
2022-10-06T19:02:38.098Z,17.95
2022-10-06T19:05:05.124Z,18.95
2022-10-06T19:07:31.738Z,17.02
2022-10-06T19:09:58.959Z,17.27
2022-10-06T19:12:25.695Z,15.82
2022-10-06T19:14:52.320Z,12.02
2022-10-06T19:17:22.569Z,22.05
2022-10-06T19:19:51.006Z,12.00
2022-10-06T19:22:19.821Z,18.88
2022-10-06T19:24:48.316Z,17.65
2022-10-06T19:27:24.841Z,16.45
2022-10-06T19:29:53.928Z,23.83
2022-10-06T19:32:27.022Z,23.23
2022-10-06T19:34:57.693Z,14.63
2022-10-06T19:37:26.791Z,21.08
2022-10-06T19:39:53.738Z,16.23
2022-10-06T19:42:38.868Z,14.00
2022-10-06T19:45:06.880Z,20.25
2022-10-06T19:47:33.764Z,19.58
2022-10-06T19:50:04.671Z,15.00
2022-10-06T19:52:33.170Z,20.55
2022-10-06T19:55:00.688Z,15.60
2022-10-06T19:57:29.025Z,16.50
2022-10-06T19:59:55.794Z,14.23
2022-10-06T20:02:23.294Z,23.52
2022-10-06T20:04:50.406Z,17.08
2022-10-06T20:07:21.343Z,17.98
2022-10-06T20:09:47.951Z,17.35
2022-10-06T20:12:15.142Z,18.25
2022-10-06T20:14:41.873Z,17.50
2022-10-06T20:17:08.510Z,21.98
2022-10-06T20:19:35.152Z,13.15
2022-10-06T20:22:02.000Z,10.95
2022-10-06T20:24:31.654Z,15.20
2022-10-06T20:26:58.295Z,18.25
2022-10-06T20:29:26.363Z,16.50
2022-10-06T20:31:55.899Z,15.38
2022-10-06T20:34:25.488Z,21.23
2022-10-06T20:36:55.833Z,20.02
2022-10-06T20:39:41.969Z,13.68
2022-10-06T20:42:13.961Z,16.92
2022-10-06T20:44:42.208Z,15.93
2022-10-06T20:47:10.155Z,14.75
2022-10-06T20:49:37.258Z,17.15
2022-10-06T20:52:05.404Z,14.40
2022-10-06T20:54:35.570Z,15.25
2022-10-06T20:57:04.645Z,13.75
2022-10-06T20:59:33.045Z,13.88
2022-10-06T21:01:59.846Z,17.23
2022-10-06T21:04:27.441Z,21.48
2022-10-06T21:06:54.062Z,12.70
2022-10-06T21:09:20.720Z,17.13
2022-10-06T21:11:47.919Z,15.10
2022-10-06T21:14:15.349Z,11.48
2022-10-06T21:16:44.897Z,17.33
2022-10-06T21:19:14.390Z,20.10
2022-10-06T21:21:42.992Z,17.05
2022-10-06T21:24:10.093Z,12.82
2022-10-06T21:26:42.169Z,21.95
2022-10-06T21:29:13.941Z,15.40
2022-10-06T21:31:41.354Z,14.27
2022-10-06T21:34:08.028Z,19.30
2022-10-06T21:36:34.708Z,17.02
2022-10-06T21:39:04.297Z,20.42
2022-10-06T21:41:34.884Z,14.55
2022-10-06T21:44:17.633Z,18.60
2022-10-06T21:46:55.711Z,12.57
2022-10-06T21:49:24.021Z,21.60
2022-10-06T21:51:52.921Z,19.10
2022-10-06T21:54:20.992Z,13.82
2022-10-06T21:56:47.794Z,12.30
2022-10-06T21:59:14.537Z,16.98
2022-10-06T22:01:43.269Z,17.77
2022-10-06T22:04:12.541Z,12.90
2022-10-06T22:06:39.455Z,13.27
2022-10-06T22:09:07.890Z,15.80
2022-10-06T22:11:37.054Z,23.85
2022-10-06T22:14:06.676Z,10.73
2022-10-06T22:16:34.837Z,15.10
2022-10-06T22:19:04.376Z,20.42
2022-10-06T22:21:33.640Z,16.98
2022-10-06T22:24:06.578Z,16.83
2022-10-06T22:26:37.136Z,24.02
2022-10-06T22:29:06.540Z,17.20
2022-10-06T22:31:33.412Z,14.05
2022-10-06T22:34:04.468Z,20.40
2022-10-06T22:36:32.877Z,12.63
2022-10-06T22:39:00.267Z,14.68
2022-10-06T22:41:27.038Z,16.05
2022-10-06T22:43:58.021Z,14.32
2022-10-06T22:46:29.748Z,14.20
2022-10-06T22:48:56.830Z,21.35
2022-10-06T22:51:23.579Z,14.15
2022-10-06T22:53:58.546Z,14.50
2022-10-06T22:56:27.133Z,20.60
2022-10-06T22:58:54.046Z,12.38
2022-10-06T23:01:20.908Z,12.75
2022-10-06T23:03:47.750Z,17.98
2022-10-06T23:06:16.371Z,17.20
2022-10-06T23:08:43.261Z,18.40
2022-10-06T23:11:16.165Z,12.07
2022-10-06T23:13:44.278Z,16.45
2022-10-06T23:16:13.413Z,12.20
2022-10-06T23:18:41.512Z,18.88
2022-10-06T23:21:21.420Z,18.40
2022-10-06T23:23:59.586Z,11.05
2022-10-06T23:26:26.799Z,12.23
2022-10-06T23:28:56.304Z,10.57
2022-10-06T23:31:23.371Z,22.92
2022-10-06T23:33:50.507Z,14.80
2022-10-06T23:36:17.987Z,12.13
2022-10-06T23:38:45.262Z,17.00
2022-10-06T23:41:12.116Z,13.45
2022-10-06T23:43:38.718Z,15.30
2022-10-06T23:46:05.381Z,16.58
2022-10-06T23:48:32.073Z,18.20
2022-10-06T23:51:01.199Z,19.73
2022-10-06T23:53:29.201Z,16.10
2022-10-06T23:55:55.866Z,14.30
2022-10-06T23:58:22.769Z,16.92
